Arcadia, Missouri
Current Conditions -  °F | °C
As of 5:55 PM on Wednesday 26 Nov 2014 (Local Time) from KFAM Reporting Station
Overcast Overcast  
Wind Chill: 32°   Ceiling: 1700
Heat Index: 36°   Visibility: 4mi
Dew Point: 32°   Wind: 5mph
Humidity: 87%   Direction: 260°W
Pressure: 30.03"   Gusts: NA
Location:  37.59°N, 90.63°W
Report Text: KFAM 262355Z AUTO 26004KT 4SM BKN017 OVC090 02/00 A3003 RMK AO1 60009 10020 20010 400201060 52017
Loading
Personal Weather Stations






























Interactive Weather Map New forecast layout! Learn more

10-Day Weather Forecast

Advertisements
Track Severe Weather on mobile